createdAt,value
2023-04-16T00:00:24.806Z,1.04
2023-04-16T00:01:24.962Z,1.04
2023-04-16T00:02:25.208Z,1.04
2023-04-16T00:03:25.309Z,1.04
2023-04-16T00:04:25.482Z,1.04
2023-04-16T00:05:25.532Z,1.04
2023-04-16T00:06:25.694Z,1.04
2023-04-16T00:07:25.833Z,1.04
2023-04-16T00:08:25.943Z,1.04
2023-04-16T00:09:26.085Z,1.04
2023-04-16T00:10:26.238Z,1.04
2023-04-16T00:11:26.410Z,1.04
2023-04-16T00:12:26.539Z,1.04
2023-04-16T00:13:26.688Z,1.04
2023-04-16T00:14:26.855Z,1.04
2023-04-16T00:15:26.981Z,1.04
2023-04-16T00:16:27.159Z,1.04
2023-04-16T00:17:27.319Z,1.04
2023-04-16T00:18:27.453Z,1.04
2023-04-16T00:19:27.549Z,1.04
2023-04-16T00:20:27.704Z,1.04
2023-04-16T00:21:27.852Z,1.04
2023-04-16T00:22:28.033Z,1.04
2023-04-16T00:23:28.154Z,1.04
2023-04-16T00:24:28.313Z,1.04
2023-04-16T00:25:28.452Z,1.04
2023-04-16T00:26:28.618Z,1.04
2023-04-16T00:27:28.777Z,1.04
2023-04-16T00:28:28.921Z,1.04
2023-04-16T00:29:29.080Z,1.04
2023-04-16T00:30:29.169Z,1.04
2023-04-16T00:31:29.380Z,1.04
2023-04-16T00:32:29.508Z,1.04
2023-04-16T00:33:29.622Z,1.04
2023-04-16T00:34:29.726Z,1.04
2023-04-16T00:35:29.881Z,1.04
2023-04-16T00:36:29.994Z,1.04
2023-04-16T00:37:30.125Z,1.04
2023-04-16T00:38:30.339Z,1.04
2023-04-16T00:39:30.433Z,1.04
2023-04-16T00:40:30.616Z,1.04
2023-04-16T00:41:30.719Z,1.04
2023-04-16T00:42:30.850Z,1.04
2023-04-16T00:43:30.957Z,1.04
2023-04-16T00:44:31.083Z,1.04
2023-04-16T00:45:31.209Z,1.04
2023-04-16T00:46:31.494Z,1.04
2023-04-16T00:47:31.499Z,1.04
2023-04-16T00:48:31.606Z,1.04
2023-04-16T00:49:31.716Z,1.04
2023-04-16T00:50:31.860Z,1.04
2023-04-16T00:51:31.949Z,1.04
2023-04-16T00:52:32.140Z,1.04
2023-04-16T00:53:32.300Z,1.04
2023-04-16T00:54:32.446Z,1.04
2023-04-16T00:55:32.597Z,1.04
2023-04-16T00:56:32.762Z,1.04
2023-04-16T00:57:32.922Z,1.04
2023-04-16T00:58:33.068Z,1.04
2023-04-16T00:59:33.197Z,1.04
2023-04-16T01:00:33.369Z,1.04
2023-04-16T01:01:33.552Z,1.04
2023-04-16T01:02:33.762Z,1.04
2023-04-16T01:03:33.866Z,1.04
2023-04-16T01:04:34.012Z,1.04
2023-04-16T01:05:34.114Z,1.04
2023-04-16T01:06:34.229Z,1.04
2023-04-16T01:07:34.395Z,1.04
2023-04-16T01:08:34.527Z,1.04
2023-04-16T01:09:34.668Z,1.04
2023-04-16T01:10:34.815Z,1.04
2023-04-16T01:11:34.930Z,1.04
2023-04-16T01:12:35.074Z,1.04
2023-04-16T01:13:35.249Z,1.04
2023-04-16T01:14:35.397Z,1.04
2023-04-16T01:15:35.570Z,1.04
2023-04-16T01:16:35.686Z,1.04
2023-04-16T01:17:35.868Z,1.04
2023-04-16T01:18:35.988Z,1.04
2023-04-16T01:19:36.168Z,1.04
2023-04-16T01:20:36.294Z,1.04
2023-04-16T01:21:36.447Z,1.04
2023-04-16T01:22:36.595Z,1.04
2023-04-16T01:23:36.761Z,1.04
2023-04-16T01:24:36.920Z,1.04
2023-04-16T01:25:37.045Z,1.04
2023-04-16T01:26:37.207Z,1.04
2023-04-16T01:27:37.367Z,1.04
2023-04-16T01:28:37.501Z,1.04
2023-04-16T01:29:37.659Z,1.04
2023-04-16T01:30:37.807Z,1.04
2023-04-16T01:31:38.011Z,1.04
2023-04-16T01:32:38.123Z,1.04
2023-04-16T01:33:38.262Z,1.04
2023-04-16T01:34:38.423Z,1.04
2023-04-16T01:35:38.575Z,1.04
2023-04-16T01:36:38.709Z,1.04
2023-04-16T01:37:38.871Z,1.04
2023-04-16T01:38:39.025Z,1.04
2023-04-16T01:39:39.171Z,1.04
2023-04-16T01:40:39.286Z,1.04
2023-04-16T01:41:39.462Z,1.04
2023-04-16T01:42:39.523Z,1.04
2023-04-16T01:43:40.269Z,1.04
2023-04-16T01:44:39.833Z,1.04
2023-04-16T01:45:39.977Z,1.04
2023-04-16T01:46:40.184Z,1.04
2023-04-16T01:47:40.303Z,1.04
2023-04-16T01:48:40.456Z,1.04
2023-04-16T01:49:40.596Z,1.04
2023-04-16T01:50:40.687Z,1.04
2023-04-16T01:51:40.792Z,1.04
2023-04-16T01:52:40.950Z,1.04
2023-04-16T01:53:41.085Z,1.04
2023-04-16T01:54:41.192Z,1.04
2023-04-16T01:55:41.347Z,1.04
2023-04-16T01:56:41.440Z,1.04
2023-04-16T01:57:41.592Z,1.04
2023-04-16T01:58:41.753Z,1.04
2023-04-16T01:59:41.895Z,1.04
2023-04-16T02:00:42.088Z,1.04
2023-04-16T02:01:42.215Z,1.04
2023-04-16T02:02:42.498Z,1.04
2023-04-16T02:03:42.726Z,1.04
2023-04-16T02:04:42.657Z,1.04
2023-04-16T02:05:42.811Z,1.04
2023-04-16T02:06:42.952Z,1.04
2023-04-16T02:07:43.072Z,1.04
2023-04-16T02:08:43.209Z,1.04
2023-04-16T02:09:43.340Z,1.04
2023-04-16T02:10:43.426Z,1.04
2023-04-16T02:11:43.580Z,1.04
2023-04-16T02:12:43.722Z,1.04
2023-04-16T02:13:43.867Z,1.04
2023-04-16T02:14:44.033Z,1.04
2023-04-16T02:15:44.179Z,1.04
2023-04-16T02:16:44.378Z,1.04
2023-04-16T02:17:44.493Z,1.04
2023-04-16T02:18:44.632Z,1.04
2023-04-16T02:19:44.781Z,1.04
2023-04-16T02:20:44.941Z,1.04
2023-04-16T02:21:45.082Z,1.04
2023-04-16T02:22:45.254Z,1.04
2023-04-16T02:23:45.380Z,1.04
2023-04-16T02:24:45.544Z,1.04
2023-04-16T02:25:45.686Z,1.04
2023-04-16T02:26:45.843Z,1.04
2023-04-16T02:27:46.016Z,1.04
2023-04-16T02:28:46.146Z,1.04
2023-04-16T02:29:46.301Z,1.04
2023-04-16T02:30:46.442Z,1.04
2023-04-16T02:31:46.617Z,1.04
2023-04-16T02:32:46.790Z,1.04
2023-04-16T02:33:46.852Z,1.04
2023-04-16T02:34:46.991Z,1.04
2023-04-16T02:35:47.147Z,1.04
2023-04-16T02:36:47.257Z,1.04
2023-04-16T02:37:47.402Z,1.04
2023-04-16T02:38:47.543Z,1.04
2023-04-16T02:39:47.703Z,1.04
2023-04-16T02:40:47.858Z,1.04
2023-04-16T02:41:47.967Z,1.04
2023-04-16T02:42:48.119Z,1.04
2023-04-16T02:43:48.289Z,1.04
2023-04-16T02:44:48.425Z,1.04
2023-04-16T02:45:48.583Z,1.04
2023-04-16T02:46:48.675Z,1.04
2023-04-16T02:47:48.869Z,1.04
2023-04-16T02:48:48.977Z,1.04
2023-04-16T02:49:49.122Z,1.04
2023-04-16T02:50:49.296Z,1.04
2023-04-16T02:51:49.439Z,1.04
2023-04-16T02:52:49.593Z,1.04
2023-04-16T02:53:49.740Z,1.04
2023-04-16T02:54:49.836Z,1.04
2023-04-16T02:55:49.936Z,1.04
2023-04-16T02:56:50.087Z,1.04
2023-04-16T02:57:50.233Z,1.04
2023-04-16T02:58:50.350Z,1.04
2023-04-16T02:59:50.480Z,1.04
2023-04-16T03:00:50.647Z,1.04
2023-04-16T03:01:50.916Z,1.04
2023-04-16T03:02:51.194Z,1.04
2023-04-16T03:03:51.146Z,1.04
2023-04-16T03:04:51.271Z,1.04
2023-04-16T03:05:51.412Z,1.04
2023-04-16T03:06:51.549Z,1.04
2023-04-16T03:07:51.689Z,1.04
2023-04-16T03:08:51.865Z,1.04
2023-04-16T03:09:52.012Z,1.04
2023-04-16T03:10:52.170Z,1.04
2023-04-16T03:11:52.302Z,1.04
2023-04-16T03:12:52.448Z,1.04
2023-04-16T03:13:52.624Z,1.04
2023-04-16T03:14:52.766Z,1.04
2023-04-16T03:15:52.908Z,1.04
2023-04-16T03:16:53.035Z,1.04
2023-04-16T03:17:53.180Z,1.04
2023-04-16T03:18:53.264Z,1.04
2023-04-16T03:19:53.416Z,1.04
2023-04-16T03:20:53.569Z,1.04
2023-04-16T03:21:53.726Z,1.04
2023-04-16T03:22:53.865Z,1.04
2023-04-16T03:23:54.022Z,1.04
2023-04-16T03:24:54.173Z,1.04
2023-04-16T03:25:54.342Z,1.04
2023-04-16T03:26:54.501Z,1.04
2023-04-16T03:27:54.582Z,1.04
2023-04-16T03:28:54.743Z,1.04
2023-04-16T03:29:54.892Z,1.04
2023-04-16T03:30:55.101Z,1.04
2023-04-16T03:31:55.186Z,1.04
2023-04-16T03:32:55.348Z,1.04
2023-04-16T03:33:55.483Z,1.04
2023-04-16T03:34:55.591Z,1.04
2023-04-16T03:35:55.731Z,1.04
2023-04-16T03:36:55.899Z,1.04
2023-04-16T03:37:55.994Z,1.04
2023-04-16T03:38:56.151Z,2
2023-04-16T03:39:56.306Z,2
2023-04-16T03:40:56.455Z,2
2023-04-16T03:41:56.605Z,2
2023-04-16T03:42:56.760Z,2
2023-04-16T03:43:56.910Z,3.04
2023-04-16T03:44:57.055Z,3.04
2023-04-16T03:45:57.212Z,3.04
2023-04-16T03:46:57.390Z,4
2023-04-16T03:47:57.583Z,5.04
2023-04-16T03:48:57.669Z,5.04
2023-04-16T03:49:57.804Z,6
2023-04-16T03:50:57.908Z,7.04
2023-04-16T03:51:58.078Z,9.04
2023-04-16T03:52:58.241Z,10
2023-04-16T03:53:58.371Z,11.04
2023-04-16T03:54:58.526Z,14
2023-04-16T03:55:58.702Z,15.04
2023-04-16T03:56:58.837Z,17.04
2023-04-16T03:57:58.986Z,20
2023-04-16T03:58:59.127Z,22
2023-04-16T03:59:59.299Z,25.04
2023-04-16T04:00:59.440Z,28
2023-04-16T04:01:59.575Z,31.04
2023-04-16T04:02:59.840Z,34
2023-04-16T04:04:00.032Z,38
2023-04-16T04:05:00.042Z,42
2023-04-16T04:06:00.170Z,49.04
2023-04-16T04:07:00.319Z,55.04
2023-04-16T04:08:00.458Z,61.04
2023-04-16T04:09:00.529Z,68
2023-04-16T04:10:00.681Z,75.04
2023-04-16T04:11:00.781Z,77.04
2023-04-16T04:12:00.945Z,91.04
2023-04-16T04:13:01.099Z,108
2023-04-16T04:14:01.266Z,123.04
2023-04-16T04:15:01.442Z,135.04
2023-04-16T04:16:01.538Z,148
2023-04-16T04:17:01.655Z,165.12
2023-04-16T04:18:01.785Z,181.12
2023-04-16T04:19:01.897Z,196
2023-04-16T04:20:02.247Z,216
2023-04-16T04:21:02.214Z,231.04
2023-04-16T04:22:02.365Z,252
2023-04-16T04:23:02.465Z,270.08
2023-04-16T04:24:02.613Z,287.04
2023-04-16T04:25:02.762Z,306.08
2023-04-16T04:26:02.948Z,321.12
2023-04-16T04:27:03.070Z,337.28
2023-04-16T04:28:03.228Z,356.16
2023-04-16T04:29:03.371Z,391.04
2023-04-16T04:30:03.543Z,422.08
2023-04-16T04:31:03.759Z,451.2
2023-04-16T04:32:03.837Z,482.24
2023-04-16T04:33:04.014Z,506.24
2023-04-16T04:34:04.097Z,532.16
2023-04-16T04:35:04.227Z,556.16
2023-04-16T04:36:04.385Z,588.16
2023-04-16T04:37:04.541Z,618.24
2023-04-16T04:38:04.695Z,656
2023-04-16T04:39:04.857Z,707.2
2023-04-16T04:40:04.984Z,756.48
2023-04-16T04:41:05.138Z,804.48
2023-04-16T04:42:05.300Z,856.32
2023-04-16T04:43:05.373Z,909.44
2023-04-16T04:44:05.476Z,945.28
2023-04-16T04:45:05.628Z,976
2023-04-16T04:46:05.813Z,990.08
2023-04-16T04:47:05.873Z,1002.24
2023-04-16T04:48:06.068Z,1021.44
2023-04-16T04:49:06.177Z,1043.2
2023-04-16T04:50:06.346Z,1081.6
2023-04-16T04:51:06.498Z,1112.32
2023-04-16T04:52:06.635Z,1157.12
2023-04-16T04:53:06.810Z,1190.4
2023-04-16T04:54:06.961Z,1218.56
2023-04-16T04:55:07.080Z,1249.28
2023-04-16T04:57:08.522Z,1295.36
2023-04-16T04:59:08.340Z,1450.24
2023-04-16T05:00:07.875Z,1491.2
2023-04-16T05:01:08.045Z,1555.2
2023-04-16T05:02:08.180Z,1612.8
2023-04-16T05:03:08.413Z,1696
2023-04-16T05:04:08.511Z,1771.52
2023-04-16T05:05:08.726Z,1847.04
2023-04-16T05:06:08.796Z,1914.88
2023-04-16T05:07:08.927Z,1957.12
2023-04-16T05:08:09.101Z,2019.84
2023-04-16T05:09:09.353Z,2110.72
2023-04-16T05:10:09.335Z,2213.12
2023-04-16T05:11:09.501Z,2342.4
2023-04-16T05:12:09.648Z,2511.36
2023-04-16T05:13:09.782Z,2639.36
2023-04-16T05:14:09.965Z,2808.32
2023-04-16T05:15:10.103Z,2944
2023-04-16T05:16:10.210Z,3097.6
2023-04-16T05:17:10.300Z,3225.6
2023-04-16T05:18:10.472Z,3325.44
2023-04-16T05:19:10.721Z,3422.72
2023-04-16T05:20:10.712Z,3471.36
2023-04-16T05:21:10.859Z,3473.92
2023-04-16T05:22:11.007Z,3430.4
2023-04-16T05:23:11.127Z,3338.24
2023-04-16T05:24:12.548Z,3266.56
2023-04-16T05:25:11.413Z,3328
2023-04-16T05:26:11.523Z,3443.2
2023-04-16T05:27:11.692Z,3591.68
2023-04-16T05:28:11.759Z,3686.4
2023-04-16T05:29:12.092Z,3791.36
2023-04-16T05:30:12.020Z,3891.2
2023-04-16T05:31:12.172Z,3985.92
2023-04-16T05:32:12.321Z,4085.76
2023-04-16T05:33:12.479Z,4175.36
2023-04-16T05:34:12.657Z,4234.24
2023-04-16T05:35:13.542Z,4270.08
2023-04-16T05:36:12.916Z,4298.24
2023-04-16T05:37:13.046Z,4318.72
2023-04-16T05:38:13.221Z,4349.44
2023-04-16T05:39:13.334Z,4385.28
2023-04-16T05:40:13.437Z,4444.16
2023-04-16T05:41:13.590Z,4518.4
2023-04-16T05:42:13.741Z,4600.32
2023-04-16T05:43:13.851Z,4664.32
2023-04-16T05:44:13.986Z,4730.88
2023-04-16T05:45:14.137Z,4840.96
2023-04-16T05:46:14.349Z,4933.12
2023-04-16T05:47:14.452Z,5058.56
2023-04-16T05:48:14.593Z,5178.88
2023-04-16T05:49:14.749Z,5319.68
2023-04-16T05:50:14.903Z,5437.44
2023-04-16T05:51:15.005Z,5539.84
2023-04-16T05:52:15.153Z,5606.4
2023-04-16T05:53:15.291Z,5688.32
2023-04-16T05:54:15.440Z,5765.12
2023-04-16T05:55:15.617Z,5847.04
2023-04-16T05:56:15.759Z,5949.44
2023-04-16T05:57:15.891Z,6077.44
2023-04-16T05:58:16.090Z,6195.2
2023-04-16T05:59:16.212Z,6297.6
2023-04-16T06:00:16.361Z,6384.64
2023-04-16T06:01:16.544Z,6487.04
2023-04-16T06:02:16.663Z,6584.32
2023-04-16T06:03:16.891Z,6656
2023-04-16T06:04:16.965Z,6732.8
2023-04-16T06:05:17.026Z,6814.72
2023-04-16T06:06:17.126Z,6891.52
2023-04-16T06:07:17.332Z,6937.6
2023-04-16T06:08:17.428Z,6993.92
2023-04-16T06:09:17.550Z,7050.24
2023-04-16T06:10:17.725Z,7116.8
2023-04-16T06:11:17.821Z,7219.2
2023-04-16T06:12:17.951Z,7342.08
2023-04-16T06:13:18.073Z,7475.2
2023-04-16T06:14:18.242Z,7659.52
2023-04-16T06:15:18.368Z,7818.24
2023-04-16T06:16:18.579Z,7982.08
2023-04-16T06:17:18.648Z,8140.8
2023-04-16T06:18:18.835Z,8253.44
2023-04-16T06:19:19.344Z,8360.96
2023-04-16T06:21:19.987Z,8483.84
2023-04-16T06:23:19.985Z,8622.08
2023-04-16T06:25:20.542Z,8821.76
2023-04-16T06:27:20.072Z,9098.24
2023-04-16T06:28:20.205Z,9262.08
2023-04-16T06:29:20.434Z,9451.52
2023-04-16T06:30:20.431Z,9635.84
2023-04-16T06:31:20.649Z,9912.319
2023-04-16T06:32:20.760Z,10142.72
2023-04-16T06:33:20.869Z,10316.8
2023-04-16T06:34:20.968Z,10557.439
2023-04-16T06:35:21.113Z,10772.479
2023-04-16T06:36:21.258Z,11069.439
2023-04-16T06:37:21.403Z,11315.2
2023-04-16T06:38:21.521Z,11581.439
2023-04-16T06:39:21.692Z,11857.92
2023-04-16T06:40:21.819Z,12124.16
2023-04-16T06:41:21.976Z,12359.68
2023-04-16T06:42:22.119Z,12605.439
2023-04-16T06:43:22.294Z,12779.52
2023-04-16T06:44:22.376Z,12943.359
2023-04-16T06:45:22.510Z,14039.04
2023-04-16T06:46:22.760Z,14325.76
2023-04-16T06:47:22.817Z,14622.72
2023-04-16T06:48:22.939Z,14960.64
2023-04-16T06:49:23.184Z,15226.88
2023-04-16T06:50:23.246Z,15831.04
2023-04-16T06:51:23.381Z,15308.8
2023-04-16T06:52:23.491Z,15155.199
2023-04-16T06:53:23.649Z,15267.84
2023-04-16T06:54:23.801Z,15523.84
2023-04-16T06:55:23.948Z,15534.08
2023-04-16T06:56:24.086Z,15452.159
2023-04-16T06:57:24.246Z,15421.439
2023-04-16T06:58:24.391Z,15400.96
2023-04-16T06:59:24.550Z,15411.199
2023-04-16T07:00:24.704Z,15360
2023-04-16T07:01:24.861Z,15462.399
2023-04-16T07:02:25.068Z,15605.76
2023-04-16T07:03:25.233Z,15810.56
2023-04-16T07:04:25.275Z,16117.76
2023-04-16T07:05:25.432Z,16332.8
2023-04-16T07:06:25.573Z,16609.28
2023-04-16T07:07:25.717Z,16926.72
2023-04-16T07:08:25.881Z,17295.36
2023-04-16T07:09:26.002Z,17725.44
2023-04-16T07:10:26.156Z,17848.32
2023-04-16T07:11:26.265Z,18012.16
2023-04-16T07:12:26.366Z,18114.56
2023-04-16T07:13:26.517Z,18432
2023-04-16T07:14:26.629Z,18667.52
2023-04-16T07:15:26.744Z,18728.96
2023-04-16T07:16:26.941Z,18728.96
2023-04-16T07:17:27.031Z,18913.28
2023-04-16T07:18:27.074Z,18882.56
2023-04-16T07:19:27.223Z,19025.92
2023-04-16T07:20:27.335Z,19251.2
2023-04-16T07:21:27.476Z,19230.72
2023-04-16T07:22:27.637Z,19077.12
2023-04-16T07:23:27.797Z,18974.72
2023-04-16T07:24:27.942Z,19005.44
2023-04-16T07:25:28.083Z,19476.48
2023-04-16T07:26:28.238Z,19865.6
2023-04-16T07:27:28.384Z,20377.6
2023-04-16T07:28:28.556Z,20643.84
2023-04-16T07:29:28.692Z,20643.84
2023-04-16T07:30:28.842Z,20510.72
2023-04-16T07:31:29.000Z,20336.64
2023-04-16T07:32:29.185Z,20326.4
2023-04-16T07:33:29.310Z,19763.2
2023-04-16T07:34:29.452Z,19384.32
2023-04-16T07:35:29.597Z,19384.32
2023-04-16T07:36:29.778Z,19681.28
2023-04-16T07:37:29.922Z,19937.28
2023-04-16T07:38:30.058Z,19968
2023-04-16T07:39:30.211Z,19476.48
2023-04-16T07:40:30.358Z,19189.76
2023-04-16T07:41:30.530Z,18944
2023-04-16T07:42:30.669Z,18780.16
2023-04-16T07:43:30.789Z,18626.56
2023-04-16T07:44:30.907Z,18411.52
2023-04-16T07:45:31.061Z,18227.2
2023-04-16T07:46:43.527Z,18104.32
2023-04-16T07:47:31.299Z,18022.4
2023-04-16T07:48:31.403Z,17827.84
2023-04-16T07:49:31.638Z,17633.28
2023-04-16T07:50:31.701Z,17479.68
2023-04-16T07:51:31.798Z,17315.84
2023-04-16T07:52:31.952Z,17172.48
2023-04-16T07:53:32.101Z,17192.96
2023-04-16T07:54:32.276Z,17213.44
2023-04-16T07:55:32.431Z,17377.28
2023-04-16T07:56:32.579Z,17633.28
2023-04-16T07:57:32.741Z,17920
2023-04-16T07:58:32.912Z,18350.08
2023-04-16T07:59:33.045Z,18636.8
2023-04-16T08:00:33.195Z,18882.56
2023-04-16T08:01:33.293Z,19056.64
2023-04-16T08:02:33.514Z,19169.28
2023-04-16T08:03:33.691Z,19425.28
2023-04-16T08:04:33.810Z,19650.56
2023-04-16T08:05:33.831Z,19906.56
2023-04-16T08:06:33.992Z,20275.2
2023-04-16T08:07:34.865Z,20654.08
2023-04-16T08:08:34.240Z,21217.28
2023-04-16T08:09:34.407Z,21606.4
2023-04-16T08:10:34.555Z,21913.6
2023-04-16T08:11:34.702Z,22077.44
2023-04-16T08:12:34.859Z,22159.36
2023-04-16T08:13:35.013Z,22302.72
2023-04-16T08:14:35.106Z,22425.6
2023-04-16T08:15:35.293Z,22487.04
2023-04-16T08:16:35.438Z,22507.52
2023-04-16T08:17:35.628Z,22343.68
2023-04-16T08:18:35.727Z,22200.32
2023-04-16T08:19:35.877Z,22179.84
2023-04-16T08:20:36.018Z,22220.8
2023-04-16T08:21:36.183Z,22323.2
2023-04-16T08:22:36.319Z,22384.64
2023-04-16T08:23:36.465Z,22446.08
2023-04-16T08:24:36.630Z,22446.08
2023-04-16T08:25:36.778Z,22343.68
2023-04-16T08:26:36.893Z,22220.8
2023-04-16T08:27:37.042Z,21995.52
2023-04-16T08:28:37.192Z,21647.36
2023-04-16T08:29:37.342Z,21422.08
2023-04-16T08:30:37.480Z,21114.88
2023-04-16T08:31:37.720Z,20684.8
2023-04-16T08:32:37.861Z,20736
2023-04-16T08:33:37.936Z,21401.6
2023-04-16T08:34:38.099Z,22016
2023-04-16T08:35:38.247Z,22650.88
2023-04-16T08:36:38.388Z,23183.36
2023-04-16T08:37:38.551Z,23449.6
2023-04-16T08:38:38.691Z,23654.4
2023-04-16T08:39:38.874Z,23654.4
2023-04-16T08:40:39.011Z,23674.88
2023-04-16T08:41:39.118Z,23695.36
2023-04-16T08:42:39.260Z,23818.24
2023-04-16T08:43:39.402Z,24084.48
2023-04-16T08:44:39.553Z,24248.32
2023-04-16T08:45:39.714Z,24391.68
2023-04-16T08:46:39.873Z,24576
2023-04-16T08:47:40.030Z,24760.32
2023-04-16T08:48:40.125Z,25149.44
2023-04-16T08:49:40.265Z,25456.64
2023-04-16T08:50:40.361Z,25866.24
2023-04-16T08:51:40.517Z,26357.76
2023-04-16T08:52:40.660Z,26828.8
2023-04-16T08:53:40.843Z,27299.84
2023-04-16T08:54:40.963Z,28221.44
2023-04-16T08:55:41.067Z,28794.88
2023-04-16T08:56:42.930Z,29614.08
2023-04-16T08:57:41.320Z,30187.52
2023-04-16T08:58:41.436Z,30781.44
2023-04-16T08:59:41.573Z,31436.8
2023-04-16T09:00:41.752Z,32030.72
2023-04-16T09:01:41.956Z,32604.16
2023-04-16T09:02:42.162Z,33280
2023-04-16T09:03:42.208Z,34467.84
2023-04-16T09:04:42.358Z,33812.48
2023-04-16T09:05:42.441Z,33361.92
2023-04-16T09:06:42.584Z,33771.52
2023-04-16T09:07:42.690Z,34426.88
2023-04-16T09:08:42.830Z,35532.8
2023-04-16T09:09:42.990Z,35840
2023-04-16T09:10:43.085Z,36392.96
2023-04-16T09:11:43.251Z,37314.56
2023-04-16T09:12:43.415Z,38502.4
2023-04-16T09:13:43.546Z,39403.52
2023-04-16T09:14:43.700Z,40448
2023-04-16T09:15:43.809Z,42229.76
2023-04-16T09:16:43.970Z,41533.44
2023-04-16T09:17:44.125Z,41246.72
2023-04-16T09:18:44.252Z,44359.68
2023-04-16T09:19:44.366Z,44195.84
2023-04-16T09:20:44.502Z,45793.28
2023-04-16T09:21:44.659Z,44605.44
2023-04-16T09:22:44.829Z,49684.48
2023-04-16T09:23:44.990Z,46489.6
2023-04-16T09:24:45.121Z,46858.24
2023-04-16T09:25:45.261Z,46243.84
2023-04-16T09:26:45.423Z,45056
2023-04-16T09:27:45.580Z,44400.64
2023-04-16T09:28:45.716Z,42926.08
2023-04-16T09:29:45.876Z,40632.32
2023-04-16T09:30:46.033Z,43458.56
2023-04-16T09:31:46.191Z,45875.2
2023-04-16T09:32:46.353Z,44236.8
2023-04-16T09:33:46.479Z,45506.56
2023-04-16T09:34:46.629Z,45342.72
2023-04-16T09:35:46.788Z,43294.72
2023-04-16T09:36:46.933Z,44195.84
2023-04-16T09:37:47.083Z,67911.68
2023-04-16T09:38:47.246Z,54763.52
2023-04-16T09:39:47.387Z,60006.4
2023-04-16T09:40:47.742Z,60743.68
2023-04-16T09:41:47.699Z,64634.88
2023-04-16T09:42:47.793Z,55296
2023-04-16T09:43:47.931Z,50995.2
2023-04-16T09:44:48.049Z,50503.68
2023-04-16T09:45:48.272Z,51978.24
2023-04-16T09:46:48.293Z,48619.52
2023-04-16T09:47:48.472Z,44974.08
2023-04-16T09:48:48.611Z,44359.68
2023-04-16T09:49:48.756Z,40980.48
2023-04-16T09:50:48.926Z,38297.6
2023-04-16T09:51:49.058Z,35962.88
2023-04-16T09:52:49.249Z,35000.32
2023-04-16T09:53:49.362Z,33710.08
2023-04-16T09:54:49.459Z,32194.56
2023-04-16T09:55:49.596Z,30658.56
2023-04-16T09:56:49.804Z,28897.28
2023-04-16T09:57:49.867Z,27627.52
2023-04-16T09:58:49.989Z,25722.88
2023-04-16T09:59:50.120Z,24637.44
2023-04-16T10:00:50.267Z,24842.24
2023-04-16T10:01:50.567Z,25518.08
2023-04-16T10:02:50.846Z,26357.76
2023-04-16T10:03:50.817Z,27627.52
2023-04-16T10:04:50.870Z,28999.68
2023-04-16T10:05:50.970Z,25128.96
2023-04-16T10:06:51.161Z,22589.44
2023-04-16T10:07:51.285Z,21954.56
2023-04-16T10:08:51.443Z,21319.68
2023-04-16T10:09:51.572Z,20756.48
2023-04-16T10:10:51.731Z,20213.76
2023-04-16T10:11:51.901Z,20305.92
2023-04-16T10:12:52.049Z,20879.36
2023-04-16T10:13:52.199Z,22159.36
2023-04-16T10:14:52.337Z,22794.24
2023-04-16T10:15:52.490Z,22200.32
2023-04-16T10:16:52.741Z,22364.16
2023-04-16T10:17:52.830Z,22138.88
2023-04-16T10:18:52.907Z,21278.72
2023-04-16T10:19:53.053Z,21483.52
2023-04-16T10:20:53.210Z,21770.24
2023-04-16T10:21:53.355Z,20725.76
2023-04-16T10:22:53.511Z,21135.36
2023-04-16T10:23:53.657Z,21053.44
2023-04-16T10:24:53.763Z,19865.6
2023-04-16T10:25:55.140Z,19578.88
2023-04-16T10:26:54.020Z,19302.4
2023-04-16T10:27:54.168Z,18176
2023-04-16T10:28:54.341Z,16906.24
2023-04-16T10:29:54.471Z,16128
2023-04-16T10:30:54.657Z,15124.479
2023-04-16T10:31:54.724Z,14796.8
2023-04-16T10:32:54.881Z,15124.479
2023-04-16T10:33:55.032Z,15493.12
2023-04-16T10:34:55.192Z,16291.84
2023-04-16T10:36:06.942Z,16701.44
2023-04-16T10:36:55.432Z,16793.6
2023-04-16T10:37:55.565Z,16865.28
2023-04-16T10:38:55.724Z,16721.92
2023-04-16T10:39:55.880Z,16844.8
2023-04-16T10:40:56.029Z,17152
2023-04-16T10:41:56.199Z,17387.52
2023-04-16T10:42:56.356Z,17694.72
2023-04-16T10:43:56.491Z,18227.2
2023-04-16T10:44:56.638Z,18534.4
2023-04-16T10:45:56.808Z,18903.04
2023-04-16T10:46:57.044Z,20674.56
2023-04-16T10:47:57.183Z,23224.32
2023-04-16T10:48:57.250Z,25210.88
2023-04-16T10:49:57.413Z,27852.8
2023-04-16T10:50:57.584Z,30105.6
2023-04-16T10:51:57.735Z,31416.32
2023-04-16T10:52:57.846Z,30556.16
2023-04-16T10:53:58.011Z,30494.72
2023-04-16T10:54:58.152Z,29286.4
2023-04-16T10:55:58.296Z,28405.76
2023-04-16T10:56:58.408Z,27422.72
2023-04-16T10:57:58.583Z,27893.76
2023-04-16T10:58:58.709Z,28323.84
2023-04-16T10:59:58.870Z,28938.24
2023-04-16T11:00:59.007Z,29675.52
2023-04-16T11:01:59.222Z,30883.84
2023-04-16T11:02:59.514Z,33894.4
2023-04-16T11:03:59.512Z,35942.4
2023-04-16T11:04:59.703Z,39219.2
2023-04-16T11:05:59.706Z,37539.84
2023-04-16T11:06:59.868Z,40038.4
2023-04-16T11:08:00.029Z,43663.36
2023-04-16T11:09:00.234Z,41451.52
2023-04-16T11:10:00.393Z,38768.64
2023-04-16T11:11:00.413Z,35553.28
2023-04-16T11:12:00.573Z,33832.96
2023-04-16T11:13:00.723Z,32686.08
2023-04-16T11:14:00.833Z,33198.08
2023-04-16T11:15:00.967Z,33812.48
2023-04-16T11:16:01.165Z,34406.4
2023-04-16T11:17:01.240Z,36392.96
2023-04-16T11:18:01.408Z,38440.96
2023-04-16T11:19:01.495Z,34160.64
2023-04-16T11:20:01.625Z,34734.08
2023-04-16T11:21:01.739Z,33730.56
2023-04-16T11:22:01.895Z,33075.2
2023-04-16T11:23:02.092Z,33648.64
2023-04-16T11:24:02.191Z,33013.76
2023-04-16T11:25:02.339Z,31928.32
2023-04-16T11:26:02.524Z,31313.92
2023-04-16T11:27:02.647Z,30720
2023-04-16T11:28:02.787Z,30494.72
2023-04-16T11:29:02.967Z,30842.88
2023-04-16T11:30:03.110Z,31170.56
2023-04-16T11:31:03.267Z,31395.84
2023-04-16T11:32:03.446Z,30863.36
2023-04-16T11:33:03.570Z,30392.32
2023-04-16T11:34:03.643Z,29921.28
2023-04-16T11:35:03.823Z,29982.72
2023-04-16T11:36:03.955Z,30023.68
2023-04-16T11:37:04.094Z,30228.48
2023-04-16T11:38:04.209Z,30822.4
2023-04-16T11:39:04.346Z,31662.08
2023-04-16T11:40:04.457Z,32849.92
2023-04-16T11:41:04.611Z,34672.64
2023-04-16T11:42:04.788Z,35901.44
2023-04-16T11:43:04.936Z,38522.88
2023-04-16T11:44:05.066Z,59392
2023-04-16T11:45:05.215Z,65290.24
2023-04-16T11:46:13.208Z,68157.44
2023-04-16T11:47:05.491Z,74915.84
2023-04-16T11:48:05.648Z,76267.52
2023-04-16T11:49:05.778Z,76062.72
2023-04-16T11:50:05.932Z,55050.24
2023-04-16T11:51:06.091Z,43786.24
2023-04-16T11:52:06.229Z,60538.88
2023-04-16T11:53:06.396Z,70574.08
2023-04-16T11:54:06.502Z,69386.24
2023-04-16T11:55:06.644Z,66437.12
2023-04-16T11:56:06.800Z,63406.08
2023-04-16T11:57:06.954Z,62464
2023-04-16T11:58:07.081Z,58736.64
2023-04-16T11:59:07.341Z,55582.72
2023-04-16T12:00:08.610Z,47185.92
2023-04-16T12:01:07.516Z,54476.8
2023-04-16T12:02:07.764Z,73154.56
2023-04-16T12:03:07.993Z,79585.28
2023-04-16T12:04:08.236Z,81264.64
2023-04-16T12:05:08.105Z,77127.68
2023-04-16T12:06:08.209Z,80855.04
2023-04-16T12:07:08.313Z,80732.16
2023-04-16T12:08:08.455Z,73932.8
2023-04-16T12:09:08.882Z,72499.2
2023-04-16T12:10:08.706Z,74055.68
2023-04-16T12:11:08.894Z,43335.68
2023-04-16T12:12:08.957Z,54231.04
2023-04-16T12:13:09.073Z,45547.52
2023-04-16T12:14:09.210Z,41205.76
2023-04-16T12:15:09.329Z,35799.04
2023-04-16T12:16:09.490Z,35307.52
2023-04-16T12:17:09.690Z,36802.56
2023-04-16T12:18:09.787Z,41205.76
2023-04-16T12:19:10.098Z,46202.88
2023-04-16T12:20:10.017Z,59760.64
2023-04-16T12:21:10.129Z,45547.52
2023-04-16T12:22:10.283Z,43663.36
2023-04-16T12:23:10.369Z,58490.88
2023-04-16T12:24:10.507Z,36843.52
2023-04-16T12:25:10.655Z,33853.44
2023-04-16T12:26:11.039Z,31252.48
2023-04-16T12:27:10.940Z,28631.04
2023-04-16T12:28:11.039Z,26705.92
2023-04-16T12:29:11.373Z,25313.28
2023-04-16T12:30:11.317Z,23941.12
2023-04-16T12:31:11.480Z,23531.52
2023-04-16T12:32:11.594Z,23142.4